Loodiep — A8ZO7 — position and weather

sailwx.info

Track history (hours):
 
Tides and Currents Weather Stations Pressure Air Temp Water Temp Dewpoint Dewpoint Depression Visibility Wind Speed Wind Dir Waves Ship Positions

Loodiep

Last reported at 2017-Apr-27 11:01 UTC. Time now 2017-Apr-28 21:53 UTC.
Position N 39°24' W 009°50'.

Length 108 m; draft 7.4 m.

Type: Cargo ship. MMSI: 636015263.

Date/timePositionNaut miles runAvg speedWind from/ knotsBaromVisibWave heightAir tempDewpointWater temp
2017-Apr-27 11:01N 39°24' W 009°50'0 6.5
2017-Apr-27 10:59N 39°24' W 009°50'3 6.5
2017-Apr-27 10:30N 39°21' W 009°50'3 6.6
2017-Apr-27 10:00N 39°18' W 009°51'3 6.3
2017-Apr-27 09:30N 39°15' W 009°50'3 6.2
2017-Apr-27 09:00N 39°12' W 009°51'3 6.4
2017-Apr-27 08:31N 39°08' W 009°51'3 6.2
2017-Apr-27 08:00N 39°05' W 009°51'3 6.1
2017-Apr-27 07:30N 39°02' W 009°51'3 5.8
2017-Apr-27 07:00N 38°59' W 009°51'3 6.0
2017-Apr-27 06:30N 38°56' W 009°51'3 5.8
2017-Apr-27 06:00N 38°53' W 009°51'3 5.3
2017-Apr-27 05:31N 38°51' W 009°51'3 5.8
2017-Apr-27 05:00N 38°48' W 009°51'3 6.1
2017-Apr-27 04:30N 38°45' W 009°51'3 6.3
2017-Apr-27 04:01N 38°42' W 009°51'3 6.5
2017-Apr-27 03:30N 38°38' W 009°50'3 6.4
2017-Apr-27 03:01N 38°35' W 009°49'3 6.8
2017-Apr-27 02:31N 38°32' W 009°48'3 6.6
2017-Apr-27 02:01N 38°29' W 009°47'3 6.9
2017-Apr-27 01:30N 38°25' W 009°46'3 7.0
2017-Apr-27 01:00N 38°22' W 009°45'4 7.2
2017-Apr-27 00:29N 38°18' W 009°44'4 7.3
2017-Apr-26 23:57N 38°15' W 009°43'6 7.4
2017-Apr-26 23:05N 38°08' W 009°41'1 7.3
2017-Apr-26 22:55N 38°07' W 009°40'3 7.3
2017-Apr-26 22:29N 38°04' W 009°40'4 7.5
2017-Apr-26 22:01N 38°01' W 009°39'10 8.1
2017-Apr-26 20:43N 37°50' W 009°36'2 8.3
2017-Apr-26 20:30N 37°49' W 009°35'217 8.6
2017-Apr-25 19:15N 35°58' W 005°42'2 7.8
2017-Apr-25 18:57N 35°58' W 005°39'3 7.0
2017-Apr-25 18:31N 35°58' W 005°35'4 7.1
2017-Apr-25 18:01N 35°60' W 005°31'4 7.1
2017-Apr-25 17:31N 36°01' W 005°27'4 8.3
2017-Apr-25 17:01N 36°04' W 005°24'5 9.8
2017-Apr-25 16:30N 36°09' W 005°24'1 1.7
2017-Apr-25 15:59N 36°10' W 005°23'0 0.0
2017-Apr-25 15:29N 36°10' W 005°23'0 0.0
2017-Apr-25 14:59N 36°10' W 005°23'0 0.0
2017-Apr-25 13:59N 36°10' W 005°23'0 0.0
2017-Apr-25 13:29N 36°10' W 005°23'0 0.1
2017-Apr-25 12:54N 36°10' W 005°23'2 3.9
2017-Apr-25 12:30N 36°08' W 005°23'4 7.4
2017-Apr-25 11:57N 36°06' W 005°20'5 9.2
2017-Apr-25 11:26N 36°06' W 005°14'4 9.8
2017-Apr-25 11:00N 36°07' W 005°09'  
Track history (hours):
 
Tides and Currents Weather Stations Pressure Air Temp Water Temp Dewpoint Dewpoint Depression Visibility Wind Speed Wind Dir Waves Ship Positions

Loodiep

Last reported at 2017-Apr-27 11:01 UTC. Time now 2017-Apr-28 21:53 UTC.
Position N 39°24' W 009°50'.

Length 108 m; draft 7.4 m.

Type: Cargo ship. MMSI: 636015263.

Date/timePositionNaut miles runAvg speedWind from/ knotsBaromVisibWave heightAir tempDewpointWater temp
2017-Apr-27 11:01N 39°24' W 009°50'0 6.5
2017-Apr-27 10:59N 39°24' W 009°50'3 6.5
2017-Apr-27 10:30N 39°21' W 009°50'3 6.6
2017-Apr-27 10:00N 39°18' W 009°51'3 6.3
2017-Apr-27 09:30N 39°15' W 009°50'3 6.2
2017-Apr-27 09:00N 39°12' W 009°51'3 6.4
2017-Apr-27 08:31N 39°08' W 009°51'3 6.2
2017-Apr-27 08:00N 39°05' W 009°51'3 6.1
2017-Apr-27 07:30N 39°02' W 009°51'3 5.8
2017-Apr-27 07:00N 38°59' W 009°51'3 6.0
2017-Apr-27 06:30N 38°56' W 009°51'3 5.8
2017-Apr-27 06:00N 38°53' W 009°51'3 5.3
2017-Apr-27 05:31N 38°51' W 009°51'3 5.8
2017-Apr-27 05:00N 38°48' W 009°51'3 6.1
2017-Apr-27 04:30N 38°45' W 009°51'3 6.3
2017-Apr-27 04:01N 38°42' W 009°51'3 6.5
2017-Apr-27 03:30N 38°38' W 009°50'3 6.4
2017-Apr-27 03:01N 38°35' W 009°49'3 6.8
2017-Apr-27 02:31N 38°32' W 009°48'3 6.6
2017-Apr-27 02:01N 38°29' W 009°47'3 6.9
2017-Apr-27 01:30N 38°25' W 009°46'3 7.0
2017-Apr-27 01:00N 38°22' W 009°45'4 7.2
2017-Apr-27 00:29N 38°18' W 009°44'4 7.3
2017-Apr-26 23:57N 38°15' W 009°43'6 7.4
2017-Apr-26 23:05N 38°08' W 009°41'1 7.3
2017-Apr-26 22:55N 38°07' W 009°40'3 7.3
2017-Apr-26 22:29N 38°04' W 009°40'4 7.5
2017-Apr-26 22:01N 38°01' W 009°39'10 8.1
2017-Apr-26 20:43N 37°50' W 009°36'2 8.3
2017-Apr-26 20:30N 37°49' W 009°35'217 8.6
2017-Apr-25 19:15N 35°58' W 005°42'2 7.8
2017-Apr-25 18:57N 35°58' W 005°39'3 7.0
2017-Apr-25 18:31N 35°58' W 005°35'4 7.1
2017-Apr-25 18:01N 35°60' W 005°31'4 7.1
2017-Apr-25 17:31N 36°01' W 005°27'4 8.3
2017-Apr-25 17:01N 36°04' W 005°24'5 9.8
2017-Apr-25 16:30N 36°09' W 005°24'1 1.7
2017-Apr-25 15:59N 36°10' W 005°23'0 0.0
2017-Apr-25 15:29N 36°10' W 005°23'0 0.0
2017-Apr-25 14:59N 36°10' W 005°23'0 0.0
2017-Apr-25 13:59N 36°10' W 005°23'0 0.0
2017-Apr-25 13:29N 36°10' W 005°23'0 0.1
2017-Apr-25 12:54N 36°10' W 005°23'2 3.9
2017-Apr-25 12:30N 36°08' W 005°23'4 7.4
2017-Apr-25 11:57N 36°06' W 005°20'5 9.2
2017-Apr-25 11:26N 36°06' W 005°14'4 9.8
2017-Apr-25 11:00N 36°07' W 005°09'  

Dump ship's entire track history